Pagrindinis puslapis
METAR-TAF:

METAR-TAF

Oro uostai :

Naftos platforma

F16-a, Nyderlandai

platuma: 54-07-00N, ilguma: 4-00-44E, Aukštis: 28 m

Dabartinis oras

Ataskaita buvo paskelbta 40 minutes, ne 13:25 UTC
Vėjas 21 kt iš Vakarų
Temperatūra 7°C
Drėgmė 70%
Slėgis 1014 hPa
Matomumas 10 km arba daugiau
Mažai debesys ne aukštis 1700 ft
Su prošvaistėmis ne aukštis 2200 ft
Su prošvaistėmis ne aukštis 2500 ft

METAR: EHFZ 191325Z AUTO 26021KT 9999 // FEW017 BKN022 BKN025 07/02 Q1014 RE//

Laikas: 15:05 (14:05 UTC)


TAF: trūkstamas

Orai ataskaitas ir orų prognozės (METAR, TAF).

turimą stotys yra geltonos ir raudonos taškus žemėlapyje.

Perkelti pele per norėdami pamatyti stoties vardą.

Tada spustelėkite, norėdami matyti oro stebėjimo ir prognozės.

Norėdami pakeisti žemėlapį: spustelėkite ant žalios mygtukų su juodo kryžiaus žemyn,; žalią mygtuką su brūkšneliu, jei norite nutolinti; arba žalių rodyklių gretimoms žemėlapius.


METAR-TAF: